Time;durP1;ratioP1;P1;durP2;ratioP2;P2;SDS_P1;SDS_P2;PMS_P1;PMS_P2;Temp;Humidity;BMP_temperature;BMP_pressure;BME280_temperature;BME280_humidity;BME280_pressure;Samples;Min_cycle;Max_cycle;Signal;HPM_P1;HPM_P2
2024/02/11 00:00:37;;;;;;;6.65;5.85;;;13.90;82.40;;;;;;5076952;28;20503;-87
2024/02/11 00:03:03;;;;;;;6.15;5.55;;;13.90;82.40;;;;;;5109270;27;20352;-87
2024/02/11 00:05:31;;;;;;;6.88;5.85;;;13.90;82.40;;;;;;5075448;28;20036;-83
2024/02/11 00:07:57;;;;;;;6.55;5.85;;;13.90;82.40;;;;;;5107672;28;20479;-91
2024/02/11 00:10:23;;;;;;;6.95;6.03;;;13.80;82.40;;;;;;5076964;28;20490;-91
2024/02/11 00:12:48;;;;;;;6.45;5.70;;;13.80;82.40;;;;;;5075045;28;20024;-90
2024/02/11 00:15:14;;;;;;;6.80;5.90;;;13.90;82.40;;;;;;5090446;28;20031;-91
2024/02/11 00:17:43;;;;;;;6.57;5.90;;;13.80;82.40;;;;;;5076758;28;20028;-91
2024/02/11 00:20:14;;;;;;;6.70;5.43;;;13.80;82.40;;;;;;5091281;28;20054;-82
2024/02/11 00:22:40;;;;;;;6.80;6.10;;;13.80;82.40;;;;;;5096715;28;20032;-83
2024/02/11 00:25:10;;;;;;;6.45;5.75;;;13.80;82.40;;;;;;5073325;28;20024;-83
2024/02/11 00:27:42;;;;;;;6.78;5.95;;;13.80;82.40;;;;;;5071916;28;20147;-81
2024/02/11 00:30:09;;;;;;;6.95;6.25;;;13.80;82.40;;;;;;5074392;28;20047;-91
2024/02/11 00:32:37;;;;;;;6.78;6.07;;;13.80;82.40;;;;;;5113946;27;20150;-91
2024/02/11 00:35:03;;;;;;;7.45;6.68;;;13.80;82.40;;;;;;5126757;27;20020;-91
2024/02/11 00:37:29;;;;;;;7.05;6.18;;;13.80;82.50;;;;;;5072672;28;20048;-91
2024/02/11 00:39:58;;;;;;;6.88;6.18;;;13.80;82.40;;;;;;5122750;27;20055;-82
2024/02/11 00:42:27;;;;;;;7.22;6.53;;;13.80;82.40;;;;;;5105764;28;20025;-81
2024/02/11 00:44:54;;;;;;;6.45;5.65;;;13.70;82.40;;;;;;5091365;28;20085;-81
2024/02/11 00:47:21;;;;;;;7.13;6.18;;;13.70;82.40;;;;;;5078635;28;20024;-88
2024/02/11 00:49:47;;;;;;;7.18;6.18;;;13.70;82.40;;;;;;5091041;28;20505;-87
2024/02/11 00:52:15;;;;;;;6.50;5.57;;;13.70;82.40;;;;;;5074790;28;20418;-82
2024/02/11 00:54:42;;;;;;;6.60;5.88;;;13.70;82.40;;;;;;5073789;28;20119;-83
2024/02/11 00:57:08;;;;;;;6.45;5.70;;;13.70;82.40;;;;;;5070388;28;20035;-83
2024/02/11 00:59:34;;;;;;;7.25;6.10;;;13.70;82.40;;;;;;5072807;28;20031;-91
2024/02/11 01:02:01;;;;;;;6.90;6.20;;;13.70;82.40;;;;;;5069146;28;20544;-92
2024/02/11 01:04:27;;;;;;;7.38;6.57;;;13.70;82.40;;;;;;5107613;27;20024;-92
2024/02/11 01:06:57;;;;;;;6.70;6.00;;;13.70;82.40;;;;;;5071037;28;20028;-82
2024/02/11 01:09:24;;;;;;;6.97;6.13;;;13.70;82.40;;;;;;5082866;28;20029;-81
2024/02/11 01:11:51;;;;;;;6.50;5.75;;;13.70;82.40;;;;;;5073114;28;20028;-81
2024/02/11 01:14:18;;;;;;;7.03;6.03;;;13.70;82.40;;;;;;5071133;28;20028;-80
2024/02/11 01:16:44;;;;;;;7.22;5.90;;;13.70;82.40;;;;;;5089030;28;20039;-81
2024/02/11 01:19:11;;;;;;;7.35;6.45;;;13.70;82.40;;;;;;5114180;27;20483;-81
2024/02/11 01:21:37;;;;;;;7.93;6.93;;;13.70;82.40;;;;;;5089762;28;20020;-81
2024/02/11 01:24:03;;;;;;;6.85;5.90;;;13.60;82.40;;;;;;5071029;28;20020;-92
2024/02/11 01:26:29;;;;;;;7.80;6.20;;;13.70;82.50;;;;;;5091151;28;20043;-91
2024/02/11 01:28:55;;;;;;;7.20;6.50;;;13.70;82.50;;;;;;5073061;28;20032;-92
2024/02/11 01:31:22;;;;;;;7.28;6.35;;;13.60;82.40;;;;;;5092721;28;20031;-93
2024/02/11 01:33:49;;;;;;;7.38;6.35;;;13.60;82.40;;;;;;5071809;28;20032;-81
2024/02/11 01:36:15;;;;;;;6.75;6.05;;;13.70;82.50;;;;;;5089788;28;20067;-81
2024/02/11 01:38:44;;;;;;;7.30;5.97;;;13.60;82.40;;;;;;5093308;28;20118;-81
2024/02/11 01:41:09;;;;;;;7.50;6.70;;;13.60;82.50;;;;;;5070744;28;20492;-81
2024/02/11 01:43:35;;;;;;;6.97;6.10;;;13.60;82.40;;;;;;5073884;28;20540;-86
2024/02/11 01:46:01;;;;;;;7.55;6.75;;;13.60;82.40;;;;;;5074408;28;20020;-87
2024/02/11 01:48:30;;;;;;;7.07;6.15;;;13.60;82.40;;;;;;5076680;28;20047;-87
2024/02/11 01:50:57;;;;;;;7.88;6.82;;;13.60;82.50;;;;;;5112661;27;20039;-83
2024/02/11 01:53:25;;;;;;;6.72;6.03;;;13.60;82.50;;;;;;5092211;28;20032;-82
2024/02/11 01:55:52;;;;;;;7.28;6.53;;;13.60;82.50;;;;;;5089351;28;20024;-92
2024/02/11 01:58:18;;;;;;;7.82;6.80;;;13.60;82.50;;;;;;5091375;28;20036;-81
2024/02/11 02:00:45;;;;;;;7.25;6.50;;;13.60;82.50;;;;;;5093128;28;20457;-81
2024/02/11 02:03:13;;;;;;;7.70;6.90;;;13.60;82.50;;;;;;5071575;28;20134;-83
2024/02/11 02:05:39;;;;;;;6.78;5.97;;;13.60;82.50;;;;;;5081075;28;20101;-83
2024/02/11 02:08:08;;;;;;;7.20;6.50;;;13.50;82.50;;;;;;5071358;28;20032;-82
2024/02/11 02:10:35;;;;;;;7.10;6.38;;;13.50;82.50;;;;;;5067583;28;20016;-82
2024/02/11 02:13:01;;;;;;;7.57;6.72;;;13.50;82.50;;;;;;5096890;28;20081;-82
2024/02/11 02:15:26;;;;;;;7.38;6.63;;;13.50;82.50;;;;;;5080919;28;20024;-83
2024/02/11 02:17:52;;;;;;;7.15;6.45;;;13.50;82.50;;;;;;5074523;28;20020;-87
2024/02/11 02:20:18;;;;;;;7.07;6.38;;;13.50;82.50;;;;;;5078632;28;20041;-87
2024/02/11 02:22:47;;;;;;;7.03;6.32;;;13.50;82.50;;;;;;5070139;28;20131;-94
2024/02/11 02:25:17;;;;;;;7.53;6.55;;;13.50;82.50;;;;;;5123505;27;20031;-87
2024/02/11 02:27:46;;;;;;;7.53;6.70;;;13.50;82.50;;;;;;5091234;28;20040;-82
2024/02/11 02:30:14;;;;;;;7.10;6.35;;;13.50;82.50;;;;;;5089485;28;20058;-87
2024/02/11 02:32:40;;;;;;;7.05;6.35;;;13.50;82.50;;;;;;5090563;28;20025;-81
2024/02/11 02:35:07;;;;;;;7.32;6.55;;;13.50;82.50;;;;;;5087820;28;20430;-86
2024/02/11 02:37:36;;;;;;;7.15;6.22;;;13.50;82.50;;;;;;5094227;28;20032;-87
2024/02/11 02:40:06;;;;;;;7.00;6.28;;;13.50;82.50;;;;;;5088916;28;20067;-88
2024/02/11 02:42:36;;;;;;;7.10;6.40;;;13.50;82.50;;;;;;5068814;28;20028;-86
2024/02/11 02:45:07;;;;;;;7.80;7.00;;;13.50;82.50;;;;;;5075363;28;20487;-93
2024/02/11 02:47:36;;;;;;;7.97;6.88;;;13.50;82.50;;;;;;5085549;28;20052;-93
2024/02/11 02:50:07;;;;;;;7.72;6.82;;;13.50;82.50;;;;;;5087524;28;20126;-88
2024/02/11 02:52:38;;;;;;;7.35;6.60;;;13.50;82.50;;;;;;5103689;28;20495;-94
2024/02/11 02:55:07;;;;;;;7.20;6.50;;;13.50;82.50;;;;;;5091797;28;20067;-94
2024/02/11 02:57:35;;;;;;;7.80;6.60;;;13.40;82.50;;;;;;5087693;28;20085;-81
2024/02/11 03:00:08;;;;;;;7.68;6.88;;;13.40;82.50;;;;;;5106373;28;20024;-87
2024/02/11 03:02:56;;;;;;;7.13;6.43;;;13.40;82.50;;;;;;5089933;28;20088;-94
2024/02/11 03:05:24;;;;;;;7.57;6.47;;;13.40;83.10;;;;;;5123167;27;20064;-82
2024/02/11 03:07:53;;;;;;;7.32;6.47;;;13.40;82.50;;;;;;5111900;28;20560;-82
2024/02/11 03:10:20;;;;;;;8.10;7.20;;;13.40;82.50;;;;;;5076907;28;20082;-86
2024/02/11 03:12:48;;;;;;;7.55;6.75;;;13.40;82.50;;;;;;5101203;28;20024;-82
2024/02/11 03:15:27;;;;;;;7.60;6.80;;;13.40;83.10;;;;;;5091949;28;20534;-87
2024/02/11 03:17:58;;;;;;;8.05;7.00;;;13.40;82.50;;;;;;5085260;28;20119;-81
2024/02/11 03:20:30;;;;;;;7.03;6.32;;;13.40;82.50;;;;;;5095034;28;20086;-86
2024/02/11 03:23:00;;;;;;;8.10;7.20;;;13.40;82.50;;;;;;5080856;28;20066;-87
2024/02/11 03:25:27;;;;;;;7.47;6.68;;;13.40;82.50;;;;;;5095317;28;20046;-93
2024/02/11 03:27:57;;;;;;;7.80;6.95;;;13.40;82.50;;;;;;5093362;28;20039;-81
2024/02/11 03:30:26;;;;;;;7.47;6.78;;;13.40;82.60;;;;;;5078507;28;20168;-81
2024/02/11 03:32:56;;;;;;;7.47;6.70;;;13.40;82.50;;;;;;5130032;27;20028;-95
2024/02/11 03:35:22;;;;;;;7.57;6.78;;;13.40;82.50;;;;;;5125980;27;20034;-88
2024/02/11 03:38:04;;;;;;;7.78;6.97;;;13.40;82.50;;;;;;5074095;28;20126;-81
2024/02/11 03:40:32;;;;;;;7.70;6.90;;;13.40;82.50;;;;;;5074140;28;20091;-93
2024/02/11 03:42:58;;;;;;;8.18;7.20;;;13.30;82.50;;;;;;5076718;28;20180;-82
2024/02/11 03:45:25;;;;;;;7.57;6.78;;;13.30;82.40;;;;;;5096244;28;20016;-94
2024/02/11 03:47:57;;;;;;;7.93;7.13;;;13.40;82.50;;;;;;5096658;28;20034;-87
2024/02/11 03:50:25;;;;;;;7.45;6.65;;;13.30;82.40;;;;;;5103804;28;20043;-81
2024/02/11 03:52:51;;;;;;;7.65;6.85;;;13.30;82.50;;;;;;5097508;28;20086;-81
2024/02/11 03:55:20;;;;;;;7.55;6.65;;;13.30;82.50;;;;;;5096794;28;20482;-82
2024/02/11 03:57:47;;;;;;;7.45;6.75;;;13.30;82.50;;;;;;5096886;28;20043;-82
2024/02/11 04:00:22;;;;;;;6.80;6.10;;;13.30;82.50;;;;;;5091641;28;20108;-82
2024/02/11 04:02:49;;;;;;;7.25;6.55;;;13.30;82.50;;;;;;5086439;28;20031;-86
2024/02/11 04:05:20;;;;;;;7.40;6.70;;;13.30;82.50;;;;;;5089520;28;20020;-96
2024/02/11 04:07:47;;;;;;;7.75;6.90;;;13.30;82.50;;;;;;5072944;28;20035;-86
2024/02/11 04:10:19;;;;;;;8.10;7.30;;;13.30;82.50;;;;;;5127243;27;20043;-82
2024/02/11 04:12:47;;;;;;;7.60;6.80;;;13.30;82.50;;;;;;5106129;27;20046;-87
2024/02/11 04:15:16;;;;;;;7.07;6.35;;;13.30;82.50;;;;;;5094295;28;20095;-88
2024/02/11 04:17:49;;;;;;;7.30;6.60;;;13.30;82.50;;;;;;5078593;28;20040;-82
2024/02/11 04:20:23;;;;;;;7.18;6.47;;;13.30;82.50;;;;;;5095350;28;20530;-83
2024/02/11 04:22:57;;;;;;;7.38;6.40;;;13.20;82.50;;;;;;5076654;28;20020;-86
2024/02/11 04:25:33;;;;;;;7.88;7.03;;;13.20;82.50;;;;;;5093749;28;20032;-94
2024/02/11 04:28:07;;;;;;;7.53;6.70;;;13.20;82.40;;;;;;5099159;28;20153;-95
2024/02/11 04:30:37;;;;;;;8.10;7.18;;;13.20;82.50;;;;;;5093214;28;20169;-81
2024/02/11 04:33:13;;;;;;;8.30;7.47;;;13.20;82.50;;;;;;5073528;28;20028;-82
2024/02/11 04:35:43;;;;;;;7.05;6.35;;;13.20;82.50;;;;;;5075538;28;20042;-94
2024/02/11 04:38:12;;;;;;;7.43;6.63;;;13.20;82.50;;;;;;5078444;28;20068;-86
2024/02/11 04:40:51;;;;;;;7.85;7.05;;;13.20;82.50;;;;;;5090934;28;20032;-86
2024/02/11 04:43:20;;;;;;;8.00;6.63;;;13.20;82.50;;;;;;5107006;27;20020;-94
2024/02/11 04:45:46;;;;;;;7.30;6.60;;;13.20;82.50;;;;;;5076825;28;20066;-82
2024/02/11 04:48:19;;;;;;;7.80;7.00;;;13.20;82.50;;;;;;5089702;28;20056;-82
2024/02/11 04:50:46;;;;;;;8.13;7.33;;;13.20;82.60;;;;;;5090407;28;20024;-82
2024/02/11 04:53:15;;;;;;;7.95;7.15;;;13.10;82.50;;;;;;5104398;27;20028;-82
2024/02/11 04:55:43;;;;;;;7.45;6.65;;;13.10;82.50;;;;;;5079607;28;20063;-82
2024/02/11 04:58:19;;;;;;;7.20;6.50;;;13.10;82.50;;;;;;5091528;28;20051;-94
2024/02/11 05:00:48;;;;;;;7.70;6.90;;;13.10;82.50;;;;;;5095673;28;20024;-88
2024/02/11 05:03:18;;;;;;;7.60;6.80;;;13.10;82.50;;;;;;5082927;28;20395;-86
2024/02/11 05:05:50;;;;;;;8.50;7.60;;;13.10;82.50;;;;;;5095639;28;20051;-87
2024/02/11 05:08:19;;;;;;;7.90;7.03;;;13.10;82.50;;;;;;5089921;28;20411;-94
2024/02/11 05:10:46;;;;;;;8.23;7.25;;;13.10;82.50;;;;;;5094465;28;20024;-88
2024/02/11 05:13:16;;;;;;;7.85;7.05;;;13.10;82.50;;;;;;5078510;28;20032;-82
2024/02/11 05:15:43;;;;;;;7.63;6.82;;;13.10;82.50;;;;;;5077913;28;20024;-86
2024/02/11 05:18:18;;;;;;;7.80;7.00;;;13.10;82.50;;;;;;5092526;28;20043;-82
2024/02/11 05:20:46;;;;;;;8.18;7.25;;;13.10;83.10;;;;;;5085973;28;20033;-86
2024/02/11 05:23:12;;;;;;;7.78;6.97;;;13.10;82.50;;;;;;5095031;28;20035;-94
2024/02/11 05:25:45;;;;;;;8.05;7.25;;;13.10;82.50;;;;;;5111437;27;20008;-82
2024/02/11 05:28:19;;;;;;;8.02;7.15;;;13.10;82.50;;;;;;5067586;28;20035;-95
2024/02/11 05:30:48;;;;;;;7.97;7.18;;;13.00;82.50;;;;;;5074418;28;20036;-86
2024/02/11 05:33:16;;;;;;;8.10;7.30;;;13.00;82.50;;;;;;5091651;28;20035;-88
2024/02/11 05:35:43;;;;;;;8.10;7.10;;;13.10;82.50;;;;;;5062271;28;20044;-88
2024/02/11 05:38:13;;;;;;;8.15;7.35;;;13.00;82.50;;;;;;5071875;28;20034;-82
2024/02/11 05:40:42;;;;;;;8.07;7.22;;;13.00;82.50;;;;;;5091893;28;20431;-86
2024/02/11 05:43:23;;;;;;;8.40;7.35;;;13.00;82.60;;;;;;5107225;28;20024;-94
2024/02/11 05:45:51;;;;;;;9.52;7.80;;;13.00;82.50;;;;;;5091192;28;20024;-94
2024/02/11 05:48:17;;;;;;;9.10;7.55;;;13.00;82.50;;;;;;5072637;28;20020;-87
2024/02/11 05:50:45;;;;;;;7.95;7.15;;;13.00;82.50;;;;;;5071262;28;20031;-81
2024/02/11 05:53:11;;;;;;;7.78;6.97;;;13.00;82.50;;;;;;5071538;28;20024;-88
2024/02/11 05:55:38;;;;;;;8.85;7.88;;;13.00;82.50;;;;;;5092617;28;20104;-81
2024/02/11 05:58:04;;;;;;;8.88;7.97;;;13.00;82.50;;;;;;5073865;28;20020;-88
2024/02/11 06:00:31;;;;;;;8.48;7.68;;;13.00;82.60;;;;;;5113000;27;20054;-87
2024/02/11 06:02:58;;;;;;;8.73;7.82;;;13.00;82.50;;;;;;5088525;28;20024;-88
2024/02/11 06:05:26;;;;;;;8.13;7.32;;;13.00;82.50;;;;;;5089813;28;20028;-82
2024/02/11 06:07:59;;;;;;;8.65;7.70;;;13.00;82.50;;;;;;5090429;28;20426;-88
2024/02/11 06:10:30;;;;;;;8.63;7.72;;;13.00;82.50;;;;;;5065988;28;20029;-82
2024/02/11 06:13:05;;;;;;;7.90;7.10;;;13.00;82.60;;;;;;5074709;28;20048;-82
2024/02/11 06:15:56;;;;;;;8.73;7.82;;;13.00;82.60;;;;;;5072138;28;20560;-93
2024/02/11 06:18:24;;;;;;;8.38;7.55;;;13.00;82.60;;;;;;5069280;28;20051;-85
2024/02/11 06:20:53;;;;;;;9.15;8.25;;;13.00;82.60;;;;;;5090542;28;20560;-87
2024/02/11 06:23:20;;;;;;;8.52;7.68;;;13.00;82.60;;;;;;5073228;28;20039;-88
2024/02/11 06:25:47;;;;;;;8.05;7.25;;;13.00;82.60;;;;;;5073617;28;20028;-86
2024/02/11 06:28:13;;;;;;;8.25;7.35;;;12.90;82.60;;;;;;5073751;28;20032;-86
2024/02/11 06:30:40;;;;;;;8.55;7.63;;;13.00;82.60;;;;;;5056114;28;20353;-81
2024/02/11 06:33:09;;;;;;;9.10;7.80;;;13.00;82.60;;;;;;5073208;28;20043;-81
2024/02/11 06:35:37;;;;;;;8.60;7.70;;;12.90;82.50;;;;;;5074039;28;20064;-93
2024/02/11 06:38:23;;;;;;;8.43;7.53;;;13.00;82.60;;;;;;5035145;28;20605;-85
2024/02/11 06:40:50;;;;;;;8.55;7.65;;;13.00;82.60;;;;;;5017229;28;20041;-87
2024/02/11 06:43:17;;;;;;;10.02;7.72;;;12.90;82.50;;;;;;5067396;28;20108;-87
2024/02/11 06:45:46;;;;;;;8.68;7.80;;;12.90;82.60;;;;;;5035214;28;20412;-86
2024/02/11 06:48:18;;;;;;;8.68;7.78;;;13.00;82.60;;;;;;5051233;28;20029;-93
2024/02/11 06:50:43;;;;;;;8.25;7.32;;;13.00;82.60;;;;;;5027944;28;20061;-92
2024/02/11 06:53:09;;;;;;;8.13;7.13;;;13.00;82.60;;;;;;5077608;28;20062;-88
2024/02/11 06:55:41;;;;;;;8.07;7.28;;;12.90;82.60;;;;;;5029841;28;20101;-85
2024/02/11 06:58:09;;;;;;;7.50;6.50;;;12.90;82.60;;;;;;5060247;28;20033;-91
2024/02/11 07:00:37;;;;;;;7.40;6.60;;;12.90;82.60;;;;;;5055406;28;20016;-82
2024/02/11 07:03:05;;;;;;;8.23;7.20;;;12.90;82.50;;;;;;5031017;28;20113;-82
2024/02/11 07:05:31;;;;;;;6.95;6.03;;;12.90;82.60;;;;;;5040136;28;20527;-86
2024/02/11 07:08:01;;;;;;;7.68;6.88;;;12.90;82.60;;;;;;5036105;28;20468;-85
2024/02/11 07:10:29;;;;;;;6.93;6.22;;;12.90;82.50;;;;;;5086726;28;20032;-81
2024/02/11 07:12:57;;;;;;;7.43;6.50;;;12.90;82.50;;;;;;5071077;28;20435;-86
2024/02/11 07:15:28;;;;;;;7.10;6.25;;;12.90;82.60;;;;;;5051981;28;20044;-85
2024/02/11 07:18:01;;;;;;;6.88;6.03;;;12.90;82.60;;;;;;5082337;28;20680;-85
2024/02/11 07:20:30;;;;;;;7.50;6.28;;;12.90;82.50;;;;;;5094116;28;20240;-82
2024/02/11 07:22:56;;;;;;;7.35;6.47;;;12.90;82.60;;;;;;5073835;28;20091;-79
2024/02/11 07:25:25;;;;;;;7.05;5.95;;;12.90;82.50;;;;;;5089597;28;20518;-81
2024/02/11 07:27:51;;;;;;;7.13;6.10;;;12.90;82.60;;;;;;5107580;27;20035;-85
2024/02/11 07:30:27;;;;;;;7.30;6.10;;;12.90;82.60;;;;;;5090740;28;20030;-86
2024/02/11 07:32:53;;;;;;;7.82;6.47;;;12.90;82.50;;;;;;5093538;28;20043;-86
2024/02/11 07:35:23;;;;;;;7.68;6.70;;;12.90;82.50;;;;;;5076242;28;20123;-81
2024/02/11 07:37:51;;;;;;;7.95;6.35;;;12.90;82.50;;;;;;5091767;28;20059;-87
2024/02/11 07:40:19;;;;;;;7.90;6.93;;;12.90;82.50;;;;;;5114063;27;20035;-82
2024/02/11 07:42:47;;;;;;;9.20;7.05;;;12.90;82.50;;;;;;5058320;28;20036;-88
2024/02/11 07:45:20;;;;;;;7.90;6.65;;;12.90;82.50;;;;;;5101152;28;20028;-88
2024/02/11 07:47:50;;;;;;;8.27;6.85;;;12.90;82.50;;;;;;5075535;28;20055;-89
2024/02/11 07:50:18;;;;;;;8.82;7.03;;;12.90;82.50;;;;;;5088316;28;20028;-82
2024/02/11 07:52:47;;;;;;;8.52;6.30;;;12.80;82.50;;;;;;5079145;28;20021;-85
2024/02/11 07:55:16;;;;;;;8.07;6.97;;;12.90;82.60;;;;;;5079003;28;20069;-82
2024/02/11 07:57:46;;;;;;;8.82;7.28;;;12.80;82.50;;;;;;5090508;28;20134;-83
2024/02/11 08:00:12;;;;;;;8.25;7.15;;;12.90;82.60;;;;;;5091040;28;20210;-89
2024/02/11 08:02:40;;;;;;;8.93;7.18;;;12.80;82.50;;;;;;5089502;28;20068;-88
2024/02/11 08:05:12;;;;;;;8.32;6.75;;;12.80;82.60;;;;;;5078571;28;20506;-83
2024/02/11 08:07:39;;;;;;;8.93;7.30;;;12.80;82.60;;;;;;5096185;28;20047;-83
2024/02/11 08:10:09;;;;;;;9.35;7.20;;;12.80;82.50;;;;;;5122809;27;20552;-81
2024/02/11 08:12:36;;;;;;;9.68;7.25;;;12.80;82.50;;;;;;5075326;28;20061;-87
2024/02/11 08:15:02;;;;;;;9.15;6.93;;;12.80;82.50;;;;;;5118620;27;20046;-87
2024/02/11 08:17:28;;;;;;;8.45;7.13;;;12.80;82.50;;;;;;5071800;28;20117;-81
2024/02/11 08:19:56;;;;;;;9.43;7.13;;;12.80;82.50;;;;;;5092584;28;20119;-90
2024/02/11 08:22:24;;;;;;;10.18;7.25;;;12.80;82.50;;;;;;5125527;27;20429;-88
2024/02/11 08:24:51;;;;;;;9.50;7.03;;;12.80;82.50;;;;;;5091751;28;20016;-81
2024/02/11 08:27:20;;;;;;;9.50;7.05;;;12.80;82.50;;;;;;5081239;28;20480;-84
2024/02/11 08:29:52;;;;;;;9.10;7.03;;;12.70;82.50;;;;;;5089447;28;20432;-90
2024/02/11 08:32:18;;;;;;;9.02;7.03;;;12.70;82.80;;;;;;5092896;28;20044;-88
2024/02/11 08:34:44;;;;;;;10.77;6.68;;;12.70;82.50;;;;;;5110535;27;20042;-96
2024/02/11 08:37:09;;;;;;;9.48;6.45;;;12.70;82.50;;;;;;5075096;28;20028;-93
2024/02/11 08:39:38;;;;;;;9.07;6.70;;;12.70;82.50;;;;;;5108884;27;20060;-87
2024/02/11 08:42:07;;;;;;;9.10;6.30;;;12.70;82.50;;;;;;5083236;28;20035;-92
2024/02/11 08:44:36;;;;;;;9.38;6.35;;;12.70;82.50;;;;;;5121958;27;20278;-86
2024/02/11 08:47:02;;;;;;;8.45;6.43;;;12.70;82.50;;;;;;5075125;28;20104;-83
2024/02/11 08:49:31;;;;;;;9.18;6.32;;;12.70;82.60;;;;;;5096721;28;20478;-81
2024/02/11 08:51:56;;;;;;;8.52;6.28;;;12.70;82.60;;;;;;5087517;28;20060;-81
2024/02/11 08:54:24;;;;;;;8.88;6.43;;;12.70;82.60;;;;;;5089461;28;20156;-88
2024/02/11 08:56:50;;;;;;;8.60;6.18;;;12.70;82.60;;;;;;5092327;28;20069;-91
2024/02/11 08:59:16;;;;;;;9.48;6.32;;;12.70;82.60;;;;;;5075869;28;20064;-96
2024/02/11 09:01:53;;;;;;;8.25;5.82;;;12.70;82.60;;;;;;5094034;28;20111;-84
2024/02/11 09:04:21;;;;;;;9.13;6.32;;;12.70;82.60;;;;;;5067571;28;20481;-81
2024/02/11 09:06:49;;;;;;;9.00;5.78;;;12.70;82.60;;;;;;5059087;28;20107;-81
2024/02/11 09:09:25;;;;;;;8.38;6.10;;;12.70;82.60;;;;;;5096736;28;20032;-95
2024/02/11 09:12:01;;;;;;;8.73;5.78;;;12.60;82.60;;;;;;5067381;28;20032;-87
2024/02/11 09:14:32;;;;;;;8.18;5.88;;;12.70;82.60;;;;;;5073491;28;20029;-86
2024/02/11 09:17:03;;;;;;;8.82;6.38;;;12.70;82.60;;;;;;5089222;28;20024;-82
2024/02/11 09:19:31;;;;;;;7.78;5.88;;;12.60;82.60;;;;;;5091459;28;20114;-81
2024/02/11 09:21:59;;;;;;;8.05;6.00;;;12.60;82.60;;;;;;5127335;27;20099;-83
2024/02/11 09:24:27;;;;;;;8.27;5.38;;;12.60;82.60;;;;;;5093257;28;20028;-95
2024/02/11 09:26:56;;;;;;;7.95;5.80;;;12.60;82.60;;;;;;5093386;28;20153;-90
2024/02/11 09:29:26;;;;;;;8.45;5.47;;;12.60;82.60;;;;;;5075926;28;20388;-81
2024/02/11 09:31:52;;;;;;;9.38;6.43;;;12.60;82.60;;;;;;5092858;28;20127;-86
2024/02/11 09:34:18;;;;;;;8.80;6.63;;;12.60;82.60;;;;;;5107535;28;20047;-87
2024/02/11 09:36:44;;;;;;;10.48;6.97;;;12.60;82.60;;;;;;5071762;28;20020;-87
2024/02/11 09:39:10;;;;;;;10.80;7.07;;;12.60;82.60;;;;;;5107365;28;20511;-87
2024/02/11 09:41:37;;;;;;;10.38;6.70;;;12.70;82.60;;;;;;5099027;28;20415;-81
2024/02/11 09:44:22;;;;;;;8.73;6.78;;;12.60;82.60;;;;;;5079863;28;20129;-86
2024/02/11 09:46:52;;;;;;;8.25;6.43;;;12.60;82.60;;;;;;5088170;28;20062;-81
2024/02/11 09:49:26;;;;;;;9.52;6.38;;;12.60;82.70;;;;;;5091058;28;20012;-88
2024/02/11 09:51:57;;;;;;;9.77;7.00;;;12.60;82.70;;;;;;5092836;28;20487;-90
2024/02/11 09:54:30;;;;;;;9.77;6.32;;;12.60;82.80;;;;;;5087726;28;20810;-81
2024/02/11 09:56:57;;;;;;;8.15;6.28;;;12.60;82.80;;;;;;5083522;28;20027;-82
2024/02/11 09:59:29;;;;;;;10.63;7.25;;;12.60;82.80;;;;;;5101064;28;20112;-84
2024/02/11 10:01:58;;;;;;;10.15;7.38;;;12.60;82.80;;;;;;5081902;28;20074;-90
2024/02/11 10:04:33;;;;;;;8.93;6.82;;;12.60;82.80;;;;;;5074731;28;20080;-81
2024/02/11 10:07:19;;;;;;;10.70;7.30;;;12.60;82.80;;;;;;5089929;28;20060;-90
2024/02/11 10:09:48;;;;;;;9.23;6.72;;;12.60;82.80;;;;;;5088415;28;20031;-89
2024/02/11 10:12:26;;;;;;;9.15;7.13;;;12.60;82.80;;;;;;5074192;28;20027;-91
2024/02/11 10:14:58;;;;;;;9.80;7.05;;;12.60;82.80;;;;;;5074500;28;20033;-82
2024/02/11 10:17:25;;;;;;;9.93;7.38;;;12.70;82.90;;;;;;5086759;28;20077;-82
2024/02/11 10:20:00;;;;;;;9.60;7.22;;;12.60;82.90;;;;;;5113772;27;20024;-89
2024/02/11 10:22:27;;;;;;;10.70;7.20;;;12.60;82.90;;;;;;5069861;28;20035;-84
2024/02/11 10:24:52;;;;;;;9.23;7.03;;;12.60;82.80;;;;;;5075270;28;20486;-88
2024/02/11 10:27:23;;;;;;;9.55;7.20;;;12.60;82.80;;;;;;5073774;28;20028;-83
2024/02/11 10:29:50;;;;;;;10.48;7.53;;;12.70;83.00;;;;;;5089029;28;20465;-83
2024/02/11 10:32:16;;;;;;;9.35;6.85;;;12.70;82.90;;;;;;5068800;28;20052;-94
2024/02/11 10:34:43;;;;;;;11.43;7.53;;;12.70;82.90;;;;;;5077755;28;20031;-89
2024/02/11 10:37:12;;;;;;;9.25;7.20;;;12.70;82.90;;;;;;5094461;28;20024;-87
2024/02/11 10:39:40;;;;;;;9.73;7.10;;;12.60;82.90;;;;;;5077001;28;20064;-88
2024/02/11 10:42:15;;;;;;;8.93;7.20;;;12.70;82.90;;;;;;5059228;28;20033;-93
2024/02/11 10:44:43;;;;;;;10.65;8.07;;;12.70;82.90;;;;;;5090814;28;20478;-87
2024/02/11 10:47:11;;;;;;;10.63;7.82;;;12.70;82.90;;;;;;5084309;28;20082;-84
2024/02/11 10:49:40;;;;;;;10.30;7.80;;;12.70;82.90;;;;;;5077751;28;20032;-88
2024/02/11 10:52:12;;;;;;;10.40;7.95;;;12.70;82.90;;;;;;5093754;28;20463;-88
2024/02/11 10:54:43;;;;;;;10.25;7.47;;;12.70;82.80;;;;;;5076911;28;20126;-89
2024/02/11 10:57:19;;;;;;;10.63;7.30;;;12.80;82.90;;;;;;5075523;28;20020;-90
2024/02/11 11:00:13;;;;;;;9.30;7.35;;;12.80;82.80;;;;;;5094713;28;20173;-87
2024/02/11 11:02:42;;;;;;;10.50;7.65;;;12.80;82.80;;;;;;5078140;28;20416;-84
2024/02/11 11:05:32;;;;;;;9.98;7.88;;;12.80;82.70;;;;;;5073070;28;20040;-90
2024/02/11 11:08:06;;;;;;;9.68;7.32;;;12.80;82.80;;;;;;5068707;28;20032;-90
2024/02/11 11:11:01;;;;;;;10.30;7.45;;;12.80;82.70;;;;;;5078646;28;20028;-87
2024/02/11 11:14:08;;;;;;;10.17;7.23;;;12.80;82.70;;;;;;5081456;28;20492;-92
2024/02/11 11:16:42;;;;;;;9.75;7.10;;;12.80;82.70;;;;;;5063409;28;20333;-91
2024/02/11 11:19:13;;;;;;;10.95;8.55;;;12.80;82.70;;;;;;5060809;28;20044;-84
2024/02/11 11:21:54;;;;;;;9.90;7.75;;;12.80;82.70;;;;;;5056178;28;20513;-94
2024/02/11 11:24:21;;;;;;;9.57;7.60;;;12.80;82.70;;;;;;5063101;28;20036;-87
2024/02/11 11:26:55;;;;;;;9.50;7.35;;;12.80;82.70;;;;;;5073669;28;20033;-91
2024/02/11 11:29:28;;;;;;;11.02;7.88;;;12.80;82.70;;;;;;5040951;28;20021;-92
2024/02/11 11:31:59;;;;;;;10.43;7.70;;;12.90;82.70;;;;;;5052184;28;20055;-93
2024/02/11 11:34:47;;;;;;;10.43;7.90;;;12.80;82.70;;;;;;5034997;28;20044;-87
2024/02/11 11:37:15;;;;;;;10.23;7.68;;;12.90;82.70;;;;;;5040465;28;20033;-86
2024/02/11 11:39:45;;;;;;;10.35;7.93;;;12.80;82.60;;;;;;5059137;28;20054;-84
2024/02/11 11:42:14;;;;;;;10.10;7.40;;;12.90;82.70;;;;;;5060693;28;20033;-90
2024/02/11 11:44:40;;;;;;;10.18;7.55;;;12.90;82.70;;;;;;5073237;28;20043;-90
2024/02/11 11:47:08;;;;;;;11.10;8.60;;;12.90;82.70;;;;;;5078694;28;20070;-90
2024/02/11 11:49:37;;;;;;;10.13;7.47;;;12.90;82.70;;;;;;5077705;28;20028;-91
2024/02/11 11:52:08;;;;;;;10.88;7.40;;;12.90;82.70;;;;;;5078570;28;20167;-90
2024/02/11 11:54:35;;;;;;;10.95;7.35;;;12.90;82.70;;;;;;5069268;28;20085;-89
2024/02/11 11:57:23;;;;;;;11.15;7.53;;;12.90;82.60;;;;;;5094373;28;20028;-87
2024/02/11 12:00:12;;;;;;;10.95;7.07;;;12.90;82.70;;;;;;5106282;28;20112;-87
2024/02/11 12:03:14;;;;;;;9.73;6.90;;;13.00;82.70;;;;;;5072889;28;20082;-85
2024/02/11 12:06:04;;;;;;;10.52;7.00;;;13.00;82.70;;;;;;5063425;28;20174;-86
2024/02/11 12:08:39;;;;;;;8.85;6.75;;;12.90;82.60;;;;;;5056545;28;20761;-90
2024/02/11 12:11:07;;;;;;;8.65;6.88;;;12.90;82.70;;;;;;5072999;28;20023;-85
2024/02/11 12:13:35;;;;;;;8.70;6.85;;;12.90;82.70;;;;;;5042693;28;20043;-85
2024/02/11 12:16:06;;;;;;;9.32;6.95;;;12.90;82.60;;;;;;5077613;28;20032;-90
2024/02/11 12:18:34;;;;;;;10.00;7.07;;;13.00;82.70;;;;;;5059676;28;20044;-94
2024/02/11 12:21:00;;;;;;;10.20;7.03;;;13.00;82.70;;;;;;5089229;28;20128;-84
2024/02/11 12:23:26;;;;;;;9.43;6.78;;;13.00;82.60;;;;;;5035356;28;20033;-84
2024/02/11 12:25:59;;;;;;;10.48;7.88;;;13.00;82.60;;;;;;5071709;28;20036;-92
2024/02/11 12:28:31;;;;;;;9.75;6.90;;;13.00;82.70;;;;;;5067895;28;20037;-92
2024/02/11 12:31:12;;;;;;;9.10;7.18;;;13.00;82.60;;;;;;5089978;28;20090;-92
2024/02/11 12:33:46;;;;;;;11.25;6.90;;;13.00;82.60;;;;;;5078480;28;20574;-90
2024/02/11 12:36:19;;;;;;;9.27;6.90;;;13.00;82.60;;;;;;5054607;28;20392;-87
2024/02/11 12:38:53;;;;;;;8.80;6.75;;;13.00;82.60;;;;;;5077577;28;20025;-84
2024/02/11 12:41:24;;;;;;;9.32;6.72;;;13.00;82.60;;;;;;5092152;28;20032;-91
2024/02/11 12:44:16;;;;;;;9.05;6.93;;;13.00;82.60;;;;;;5094764;28;20126;-84
2024/02/11 12:46:42;;;;;;;9.07;6.57;;;13.00;82.60;;;;;;5063693;28;20028;-88
2024/02/11 12:49:14;;;;;;;8.63;6.50;;;13.00;82.50;;;;;;5090295;28;20024;-92
2024/02/11 12:51:44;;;;;;;9.52;6.57;;;13.00;82.60;;;;;;5093100;28;20046;-88
2024/02/11 12:54:16;;;;;;;8.95;5.97;;;13.00;82.50;;;;;;5098691;28;20016;-85
2024/02/11 12:56:44;;;;;;;9.90;7.07;;;13.00;82.50;;;;;;5074579;28;20017;-89
2024/02/11 12:59:12;;;;;;;8.80;6.30;;;13.00;82.50;;;;;;5062877;28;20035;-90